Aérodrome :
LOGIN :

S'inscrire | Disclaimer

   EN    FR    IT 

 










Légende :    VFR   VFR Marginal   IFR   IFR Intensif   IFR Très Intensif
Visi : 
Plafond : 
>= 8 km
>= 3000ft
5 à 8 km
1000 à 3000 ft
1500m à 5 km
500 à 1000 ft
800 à 1500m
200 à 500 ft
< 800m
< 200 ft
Symboles :   Orages  Brouillard  Fortes neiges  Fortes précipitations  Vent > 20 kt
SIGMETs :   Divers  Orages  Givrage  Turbulence  Onde Orograph.  Cendres Volcan.






- Altitude de l'aérodrome : 18 ft
- Code IATA : KVA


LGKV - Megas Alexandros

DERNIER METAR :
  • 070950Z 14006KT 9999 SCT020TCU 23/18 Q1008

METARs EXPIRÉS :
  • 070920Z 08006KT 9999 SCT020TCU 23/18 Q1008
  • 070850Z 08006KT 9999 SCT020TCU 23/18 Q1008
  • 070820Z 07006KT 9999 FEW018TCU SCT080 21/18 Q1008
  • 070750Z 05007KT 9999 FEW018TCU SCT080 21/18 Q1008
  • 070720Z 04006KT 9999 FEW018TCU SCT080 20/18 Q1008

TAF TAF LGKV
Valide du 07 à 06h jusqu'au 08 à 06h UTC


070500Z 0706/0806 VRB03KT 9999 FEW020TCU SCT025 BKN080
TEMPO 0706/0716 7000 SHRA
PROB40
TEMPO 0706/0715 4000 TSRA FEW018CB BKN020 BKN070
BECMG 0716/0718 FEW020



MET'MAP, la Météo Aéronautique d'un coup d'oeil ! - Copyright ORBIFLY Décembre 2007 - Disclaimer

ORBIFLY MET'MAP TEAM :

Programmation & Développement : Alexandra Zaïnal
Sur une idée originale de : Baudouin d'Aumeries
Assistance à la programmation : Marc-Olivier Méhu
Soutien technique & logistique : Manuel Goepfert

Contact : metmap@orbifly.com




SOURCES & CREDITS :

   NOAA